Portada
METAR-TAF:

METAR-TAF

Aeropuertos :

Mont-De-Marsan, Francia

latitud: 43-55N, longitud: 000-30W, altitud: 62 m

Observación

El informe se hizo hace 20 minutos, a las 08:00 UTC
Viento calma
Temperatura 12°C
Humedad 76%
Presión 1025 hPa
Visibilidad 10 km o más
sin nubes por debajo de 1500 m y sin presencia de cumulonimbus.

METAR: LFBM 280800Z AUTO 00000KT CAVOK 12/08 Q1025

Hora: 10:20 (08:20 UTC)

Pronóstico

El informe se hizo hace 6 horas y 20 minutos, a las 02:00 UTC
Pronóstico válido del 28 a las 03 UTC al 29 a las 03 UTC
Viento 6 kt del este
Visibilidad 10 km o más
sin nubes por debajo de 1500 m y sin presencia de cumulonimbus.
Temporalmente
del 28 a las 04 UTC al 28 a las 08 UTC
Visibilidad: 3000 m
neblina
Probabilidad 30%
del 28 a las 04 UTC al 28 a las 07 UTC
Visibilidad: 0800 m
niebla

TAF: LFBM 280200Z 2803/2903 08006KT CAVOK TEMPO 2804/2808 3000 BR PROB30 2804/2807 0800 FG

Observaciones y pronósticos meteorológicos de más de 4000 aeropuertos (mensajes METAR y TAF).

Los puntos amarillos y rojos representan las estaciones disponibles.

Ponga el ratón en el punto deseado para ver el nombre de la estación.

Haga clic para ver las observaciones y los pronósticos meteorológicos.

Para cambiar el mapa : haga clic en los botones verdes con una cruz de color negro para hacer un zoom, en el botón verde con un guión para alejar o en las flechas verdes para mapas adyacentes.


METAR-TAF: